Time;durP1;ratioP1;P1;durP2;ratioP2;P2;SDS_P1;SDS_P2;PMS_P1;PMS_P2;Temp;Humidity;BMP_temperature;BMP_pressure;BME280_temperature;BME280_humidity;BME280_pressure;Samples;Min_cycle;Max_cycle;Signal;HPM_P1;HPM_P2
2023/07/12 00:01:14;;;;;;;0.70;0.70;;;;;;;16.91;87.18;100204.80;90593;1288;138371;-69
2023/07/12 00:03:17;;;;;;;0.40;0.40;;;;;;;16.88;87.38;100206.17;90783;1282;22144;-69
2023/07/12 00:05:20;;;;;;;1.90;0.60;;;;;;;16.81;87.83;100207.05;90654;1285;138289;-68
2023/07/12 00:07:21;;;;;;;1.30;1.00;;;;;;;16.79;87.79;100201.91;90791;1280;22388;-66
2023/07/12 00:09:23;;;;;;;1.50;0.60;;;;;;;16.77;87.65;100201.98;90623;1281;139719;-69
2023/07/12 00:11:24;;;;;;;0.80;0.60;;;;;;;16.72;87.70;100204.73;90800;1283;22451;-69
2023/07/12 00:13:26;;;;;;;3.50;0.60;;;;;;;16.69;87.76;100204.71;90656;1283;139538;-69
2023/07/12 00:15:32;;;;;;;0.60;0.60;;;;;;;16.68;87.48;100207.76;90760;1286;22262;-68
2023/07/12 00:17:34;;;;;;;1.70;0.70;;;;;;;16.68;87.12;100210.08;90630;1282;140512;-69
2023/07/12 00:19:36;;;;;;;0.70;0.50;;;;;;;16.69;86.94;100209.44;90779;1286;22746;-70
2023/07/12 00:21:37;;;;;;;0.70;0.40;;;;;;;16.72;86.48;100211.08;90640;1285;138646;-70
2023/07/12 00:23:39;;;;;;;4.80;1.40;;;;;;;16.70;86.28;100213.73;90765;1280;22343;-70
2023/07/12 00:25:42;;;;;;;1.50;0.50;;;;;;;16.68;86.36;100214.79;90641;1280;139616;-70
2023/07/12 00:27:44;;;;;;;1.00;1.00;;;;;;;16.66;86.33;100214.63;90793;1280;23082;-70
2023/07/12 00:29:45;;;;;;;2.00;0.90;;;;;;;16.64;86.58;100213.30;90481;1282;139347;-70
2023/07/12 00:31:47;;;;;;;1.00;0.50;;;;;;;16.61;86.58;100213.16;90710;1269;22165;-70
2023/07/12 00:33:49;;;;;;;1.70;0.60;;;;;;;16.59;86.66;100214.35;90606;1279;138847;-69
2023/07/12 00:35:50;;;;;;;0.60;0.50;;;;;;;16.57;86.47;100214.11;90778;1285;22355;-69
2023/07/12 00:37:54;;;;;;;0.70;0.50;;;;;;;16.54;86.67;100213.85;90596;1282;139100;-69
2023/07/12 00:39:56;;;;;;;1.10;0.60;;;;;;;16.52;86.87;100214.62;90683;1280;22008;-66
2023/07/12 00:42:15;;;;;;;0.70;0.50;;;;;;;16.50;87.43;100212.95;90696;1283;138886;-70
2023/07/12 00:44:23;;;;;;;0.60;0.50;;;;;;;16.50;87.82;100214.83;90618;1282;141538;-69
2023/07/12 00:46:30;;;;;;;0.70;0.70;;;;;;;16.45;88.87;100211.91;90771;1280;23037;-69
2023/07/12 00:48:32;;;;;;;0.50;0.50;;;;;;;16.44;89.22;100208.05;90700;1280;138474;-69
2023/07/12 00:50:34;;;;;;;1.10;0.70;;;;;;;16.43;89.83;100212.11;90772;1283;22905;-69
2023/07/12 00:52:36;;;;;;;1.60;0.70;;;;;;;16.45;90.08;100213.45;90709;1283;138880;-67
2023/07/12 00:54:51;;;;;;;1.90;0.90;;;;;;;16.42;90.25;100214.02;90739;1286;22377;-69
2023/07/12 00:56:53;;;;;;;1.20;0.50;;;;;;;16.36;90.74;100210.86;90670;1280;138737;-69
2023/07/12 00:59:03;;;;;;;0.50;0.50;;;;;;;16.30;90.80;100210.83;90807;1285;22318;-68
2023/07/12 01:01:06;;;;;;;2.70;0.70;;;;;;;16.25;91.01;100212.42;90604;1286;139986;-68
2023/07/12 01:03:13;;;;;;;0.80;0.80;;;;;;;16.21;91.13;100213.33;90823;1279;22221;-68
2023/07/12 01:05:16;;;;;;;1.20;0.70;;;;;;;16.13;91.40;100210.44;90608;1279;139533;-68
2023/07/12 01:07:20;;;;;;;1.40;0.70;;;;;;;16.06;91.56;100209.27;90804;1286;22227;-68
2023/07/12 01:09:23;;;;;;;1.40;0.70;;;;;;;16.02;92.07;100207.98;90628;1281;139508;-68
2023/07/12 01:11:25;;;;;;;0.90;0.40;;;;;;;15.99;93.27;100207.69;90759;1283;23328;-68
2023/07/12 01:13:29;;;;;;;0.40;0.40;;;;;;;16.01;92.97;100207.05;90656;1284;139769;-69
2023/07/12 01:15:32;;;;;;;1.30;0.60;;;;;;;16.01;92.38;100208.86;90756;1280;23921;-69
2023/07/12 01:17:35;;;;;;;0.60;0.60;;;;;;;16.00;92.00;100209.21;90691;1282;138364;-69
2023/07/12 01:19:38;;;;;;;0.30;0.30;;;;;;;15.96;92.57;100208.80;90706;1272;22226;-69
2023/07/12 01:21:46;;;;;;;0.60;0.60;;;;;;;15.95;93.12;100207.42;90578;1285;138403;-70
2023/07/12 01:23:47;;;;;;;2.90;0.60;;;;;;;15.94;93.19;100208.63;90749;1280;22208;-69
2023/07/12 01:26:29;;;;;;;1.10;0.60;;;;;;;15.91;93.50;100207.95;90584;1279;138288;-69
2023/07/12 01:28:30;;;;;;;0.50;0.50;;;;;;;15.91;93.58;100204.08;90658;1280;139561;-69
2023/07/12 01:30:33;;;;;;;0.80;0.60;;;;;;;15.89;93.66;100204.63;90740;1285;22311;-70
2023/07/12 01:32:37;;;;;;;0.90;0.70;;;;;;;15.90;94.60;100202.05;90633;1282;137939;-70
2023/07/12 01:34:38;;;;;;;1.20;0.70;;;;;;;15.93;95.10;100200.82;90766;1282;22261;-70
2023/07/12 01:36:40;;;;;;;4.20;1.90;;;;;;;15.94;94.94;100197.66;90643;1280;138017;-68
2023/07/12 01:38:42;;;;;;;1.70;0.60;;;;;;;15.93;94.62;100199.73;90777;1280;22341;-70
2023/07/12 01:40:44;;;;;;;1.10;0.70;;;;;;;15.92;94.63;100202.65;90621;1281;139257;-67
2023/07/12 01:42:46;;;;;;;0.80;0.60;;;;;;;15.93;94.94;100199.90;90773;1283;22228;-63
2023/07/12 01:44:48;;;;;;;0.50;0.50;;;;;;;15.85;95.16;100184.63;90549;1271;140102;-64
2023/07/12 01:46:49;;;;;;;0.40;0.40;;;;;;;15.88;95.17;100196.33;90765;1285;22258;-64
2023/07/12 01:48:52;;;;;;;0.60;0.60;;;;;;;15.88;95.37;100195.17;90683;1280;138578;-64
2023/07/12 01:50:54;;;;;;;0.90;0.60;;;;;;;15.89;95.06;100194.95;90698;1272;23087;-64
2023/07/12 01:52:56;;;;;;;0.30;0.30;;;;;;;15.87;94.73;100193.48;90582;1273;138321;-64
2023/07/12 01:54:58;;;;;;;0.80;0.50;;;;;;;15.83;95.71;100194.57;90705;1270;22282;-64
2023/07/12 01:56:59;;;;;;;1.20;0.70;;;;;;;15.86;96.00;100194.74;90612;1273;139913;-65
2023/07/12 01:59:01;;;;;;;0.80;0.60;;;;;;;15.88;96.14;100200.01;90676;1282;22436;-65
2023/07/12 02:01:03;;;;;;;2.90;0.90;;;;;;;15.92;96.47;100201.95;90564;1279;139481;-64
2023/07/12 02:03:08;;;;;;;1.20;0.40;;;;;;;15.97;96.06;100200.32;90767;1286;22184;-65
2023/07/12 02:05:10;;;;;;;2.00;0.70;;;;;;;15.95;95.89;100200.27;90662;1283;139398;-64
2023/07/12 02:07:11;;;;;;;1.40;0.50;;;;;;;15.93;96.20;100200.07;90710;1272;22372;-64
2023/07/12 02:09:13;;;;;;;1.00;0.80;;;;;;;15.92;96.31;100199.77;90575;1286;140905;-64
2023/07/12 02:11:15;;;;;;;0.90;0.80;;;;;;;15.87;96.46;100199.40;90767;1285;22420;-64
2023/07/12 02:13:18;;;;;;;0.40;0.30;;;;;;;15.83;97.23;100202.77;90663;1285;141050;-64
2023/07/12 02:15:19;;;;;;;4.50;2.00;;;;;;;15.82;97.85;100203.89;90698;1286;22248;-64
2023/07/12 02:17:21;;;;;;;0.90;0.60;;;;;;;15.82;98.02;100209.52;90655;1283;139024;-64
2023/07/12 02:19:23;;;;;;;1.00;0.70;;;;;;;15.69;98.06;100197.73;90783;1280;22153;-64
2023/07/12 02:21:24;;;;;;;1.60;0.60;;;;;;;15.64;98.67;100195.25;90678;1285;139154;-64
2023/07/12 02:23:26;;;;;;;2.90;1.30;;;;;;;15.74;98.80;100209.35;90746;1283;22885;-64
2023/07/12 02:25:28;;;;;;;0.70;0.70;;;;;;;15.77;98.49;100208.39;90645;1288;138373;-64
2023/07/12 02:27:29;;;;;;;0.80;0.60;;;;;;;15.86;97.66;100208.94;90780;1283;22395;-64
2023/07/12 02:29:31;;;;;;;2.80;0.50;;;;;;;15.94;96.59;100209.66;90695;1285;139522;-65
2023/07/12 02:31:32;;;;;;;0.60;0.50;;;;;;;16.05;93.40;100211.83;90770;1282;22244;-65
2023/07/12 02:33:34;;;;;;;0.50;0.30;;;;;;;16.21;89.76;100213.67;90647;1283;139714;-65
2023/07/12 02:35:39;;;;;;;0.70;0.60;;;;;;;16.41;87.24;100214.39;90699;1282;23237;-65
2023/07/12 02:37:41;;;;;;;1.00;0.60;;;;;;;16.61;85.12;100217.10;90588;1285;139212;-63
2023/07/12 02:39:45;;;;;;;0.80;0.70;;;;;;;16.74;84.14;100217.88;90767;1280;22367;-65
2023/07/12 02:41:46;;;;;;;3.30;0.90;;;;;;;16.86;83.25;100219.29;90667;1280;138309;-64
2023/07/12 02:43:48;;;;;;;0.90;0.50;;;;;;;17.02;82.12;100225.16;90814;1280;22214;-65
2023/07/12 02:45:49;;;;;;;1.70;0.90;;;;;;;17.21;81.56;100223.55;90671;1285;137626;-64
2023/07/12 02:47:51;;;;;;;1.10;0.90;;;;;;;17.41;80.04;100224.48;90808;1285;22212;-65
2023/07/12 02:49:53;;;;;;;3.40;1.40;;;;;;;17.58;78.29;100224.59;90696;1280;138147;-64
2023/07/12 02:51:55;;;;;;;1.30;0.90;;;;;;;17.64;77.70;100223.10;90782;1285;22288;-64
2023/07/12 02:53:56;;;;;;;1.30;0.80;;;;;;;17.68;78.35;100229.05;90632;1286;138707;-65
2023/07/12 02:55:58;;;;;;;2.60;0.90;;;;;;;17.80;78.53;100231.13;90761;1280;23138;-65
2023/07/12 02:57:59;;;;;;;1.10;0.70;;;;;;;18.03;76.41;100228.80;90684;1286;137130;-65
2023/07/12 03:00:02;;;;;;;3.80;1.00;;;;;;;18.29;73.34;100229.11;90801;1280;22169;-65
2023/07/12 03:02:09;;;;;;;1.10;0.60;;;;;;;18.50;72.94;100234.77;90771;1280;22287;-65
2023/07/12 03:04:11;;;;;;;0.50;0.50;;;;;;;18.72;71.30;100235.97;90676;1283;137850;-64
2023/07/12 03:06:12;;;;;;;2.20;0.50;;;;;;;18.95;70.25;100232.86;90689;1286;22403;-66
2023/07/12 03:08:14;;;;;;;1.00;0.60;;;;;;;19.18;67.97;100234.34;90664;1279;137743;-65
2023/07/12 03:10:15;;;;;;;0.90;0.50;;;;;;;19.42;66.54;100230.23;90752;1286;22164;-65
2023/07/12 03:12:17;;;;;;;3.10;0.30;;;;;;;19.67;65.14;100231.38;90621;1283;138057;-64
2023/07/12 03:14:21;;;;;;;0.60;0.40;;;;;;;19.98;63.40;100233.17;90764;1280;22895;-65
2023/07/12 03:16:22;;;;;;;1.90;0.30;;;;;;;20.23;62.12;100233.83;90678;1283;138553;-65
2023/07/12 03:18:24;;;;;;;1.10;0.60;;;;;;;20.44;61.28;100237.02;90797;1283;22414;-66
2023/07/12 03:20:26;;;;;;;1.10;0.40;;;;;;;20.68;59.56;100242.13;90680;1286;137612;-65
2023/07/12 03:22:28;;;;;;;2.70;0.20;;;;;;;20.96;58.43;100247.23;90760;1280;22341;-64
2023/07/12 03:24:29;;;;;;;0.40;0.20;;;;;;;21.23;57.47;100254.36;90682;1280;137403;-65
2023/07/12 03:26:31;;;;;;;2.70;0.20;;;;;;;21.44;56.27;100257.70;90785;1286;22358;-66
2023/07/12 03:28:33;;;;;;;2.20;0.30;;;;;;;21.59;55.38;100258.12;90684;1282;139065;-66
2023/07/12 03:30:35;;;;;;;2.10;0.40;;;;;;;21.81;55.04;100261.59;90767;1280;23544;-65
2023/07/12 03:32:36;;;;;;;1.80;0.30;;;;;;;22.10;53.68;100267.50;90709;1280;137585;-65
2023/07/12 03:34:38;;;;;;;0.50;0.20;;;;;;;22.41;52.91;100270.05;90753;1287;22195;-65
2023/07/12 03:36:39;;;;;;;0.70;0.20;;;;;;;22.63;51.43;100258.63;90619;1280;138402;-65
2023/07/12 03:38:41;;;;;;;1.50;0.30;;;;;;;22.79;51.06;100266.89;90748;1286;22322;-66
2023/07/12 03:40:46;;;;;;;8.30;0.20;;;;;;;22.94;50.69;100267.11;90633;1282;138794;-64
2023/07/12 03:42:48;;;;;;;0.30;0.20;;;;;;;23.13;50.01;100264.23;90734;1283;22454;-65
2023/07/12 03:44:49;;;;;;;0.30;0.20;;;;;;;23.25;49.16;100264.39;90662;1267;138525;-64
2023/07/12 03:46:51;;;;;;;1.00;0.20;;;;;;;23.35;48.69;100263.94;90735;1280;22776;-65
2023/07/12 03:48:52;;;;;;;0.60;0.10;;;;;;;23.45;48.19;100268.59;90600;1280;137743;-65
2023/07/12 03:50:57;;;;;;;1.20;1.10;;;;;;;23.48;47.21;100277.67;90638;1283;22373;-66
2023/07/12 03:52:58;;;;;;;3.20;0.40;;;;;;;23.48;47.04;100277.95;90632;1280;137977;-66
2023/07/12 03:55:00;;;;;;;0.50;0.40;;;;;;;23.51;46.94;100277.11;90721;1280;22179;-66
2023/07/12 03:57:02;;;;;;;1.50;0.40;;;;;;;23.56;47.41;100283.84;90574;1281;137635;-66
2023/07/12 03:59:04;;;;;;;2.30;0.70;;;;;;;23.69;46.88;100281.52;90726;1280;22196;-66
2023/07/12 04:01:08;;;;;;;2.30;0.70;;;;;;;23.92;45.76;100278.36;90578;1280;137951;-66
2023/07/12 04:03:11;;;;;;;1.60;0.50;;;;;;;24.15;45.00;100276.77;90578;1279;23630;-65
2023/07/12 04:05:13;;;;;;;1.60;0.30;;;;;;;24.33;44.05;100281.16;90596;1279;137370;-65
2023/07/12 04:07:15;;;;;;;4.10;0.60;;;;;;;24.42;45.27;100281.10;90710;1280;23202;-66
2023/07/12 04:09:16;;;;;;;2.70;0.40;;;;;;;24.65;44.41;100279.60;90624;1280;137531;-66
2023/07/12 04:11:27;;;;;;;0.60;0.30;;;;;;;24.93;43.90;100283.33;90764;1280;22363;-66
2023/07/12 04:13:29;;;;;;;2.40;0.30;;;;;;;25.22;43.05;100283.95;90534;1283;138627;-66
2023/07/12 04:15:31;;;;;;;0.60;0.30;;;;;;;25.46;42.43;100289.51;90738;1280;22900;-66
2023/07/12 04:17:33;;;;;;;1.00;0.50;;;;;;;25.67;42.24;100289.48;90563;1280;140038;-65
2023/07/12 04:19:35;;;;;;;1.30;0.50;;;;;;;25.89;41.47;100292.30;90713;1280;22136;-65
2023/07/12 04:21:36;;;;;;;1.90;0.60;;;;;;;25.97;41.62;100292.15;90602;1280;138514;-66
2023/07/12 04:23:38;;;;;;;0.40;0.30;;;;;;;26.09;41.24;100292.17;90746;1280;22374;-66
2023/07/12 04:27:49;;;;;;;1.00;0.10;;;;;;;26.37;40.23;100291.95;85644;1305;545849;-66
2023/07/12 04:29:50;;;;;;;0.20;0.20;;;;;;;26.46;39.99;100298.11;87259;1283;138170;-64
2023/07/12 04:31:52;;;;;;;0.60;0.20;;;;;;;26.49;39.75;100297.10;87427;1288;23911;-67
2023/07/12 04:33:54;;;;;;;0.40;0.10;;;;;;;26.46;38.97;100299.33;87222;1283;138348;-65
2023/07/12 04:35:55;;;;;;;2.60;0.30;;;;;;;26.26;38.70;100305.13;87440;1283;23884;-67
2023/07/12 04:37:57;;;;;;;0.90;0.30;;;;;;;26.02;38.13;100306.90;87261;1283;138368;-66
2023/07/12 04:39:59;;;;;;;0.40;0.20;;;;;;;25.65;38.66;100309.33;87433;1283;22589;-67
2023/07/12 04:42:00;;;;;;;2.00;0.10;;;;;;;25.35;38.73;100311.00;87371;1285;171817;-66
2023/07/12 04:44:02;;;;;;;1.40;0.30;;;;;;;25.12;38.92;100317.61;87781;1280;22583;-67
2023/07/12 04:46:05;;;;;;;2.60;0.30;;;;;;;24.89;38.82;100319.83;87838;1279;25346;-67
2023/07/12 16:44:47;;;;;;;2.10;0.20;;;;;;;23.71;38.57;99999.42;85351;1302;545713;-64
2023/07/12 16:46:49;;;;;;;0.80;0.30;;;;;;;23.73;38.47;100001.73;87270;1279;22559;-64
2023/07/12 16:48:53;;;;;;;1.40;0.20;;;;;;;23.71;38.76;99995.11;87170;1285;138353;-64
2023/07/12 16:50:55;;;;;;;0.60;0.20;;;;;;;23.73;39.04;99996.45;87245;1286;24386;-65
2023/07/12 16:52:57;;;;;;;0.50;0.10;;;;;;;23.68;39.14;99995.29;87216;1281;137239;-63
